Airfield :
LOGIN :

Register | Disclaimer

   EN    FR    IT 

 










Legend :    VFR   Marginal VFR   IFR   Intensive IFR   Very Intensive IFR
Visi :
Ceiling :
>= 8 km
>= 3000ft
5 to 8 km
1000 to 3000 ft
1500m to 5 km
500 to 1000 ft
800 to 1500m
200 to 500 ft
< 800m
< 200 ft
Symbols :   Thunderstorms  Fog  Heavy snow  Heavy precipitations  Wind > 20 kt
SIGMETs :     Misc.  Thunderstorms  Icing  Turbulence  Mountain Waves  Volcanic Ashes







- Airport Elevation : 106 ft
- IATA code : NRN


EDLV - Weeze

CURRENT METAR :
  • 250820Z 29015KT 9999 SCT033 07/03 Q1021

EXPIRED METARs :
  • 250750Z 29013KT 9999 SCT042 07/03 Q1020
  • 250720Z 29013KT 260V330 CAVOK 06/03 Q1020
  • 250650Z 28012KT 9999 SCT026 06/03 Q1020
  • 250620Z 28012KT CAVOK 05/03 Q1020
  • 250550Z 28010KT 9999 SCT030 05/03 Q1020

TAF TAF EDLV
Valid from the 25 at 06:00 until the 26 at 06:00 UTC


250500Z 2506/2606 27012KT 9999 SCT025
BECMG 2506/2508 29015G25KT
TEMPO 2508/2516 32020G35KT SHRA BKN015CB
BECMG 2516/2518 32010KT
BECMG 2518/2521 30005KT
No reported NOTAMs for that airfield.



MET'MAP, your aeronautical weather chart ! - Copyright ORBIFLY December 2007 - Disclaimer

ORBIFLY MET'MAP TEAM :

Programming & Development : Alexandra Zaïnal
Concept & Development : Baudouin d'Aumeries
Co-Development & Prog : Marc-Olivier Méhu
Technical & hardware support : Manuel Goepfert

Contact : metmap@orbifly.com




SOURCES & CREDITS :

   NOAA